OMDBOMAL

Guest
Details From OMDB - DUBAI INTL
To OMAL - AL AIN INTL
Flight Number -
Tags generated
Created
Modified
Stats Distance 61 nm / 114 km
Max Altitude 0 ft / 0 m
Waypoints 3
Social Downloads 0
Likes 0
Share VATSIM

Download

Looking for another format? Having issues loading an existing format? Contact us
Advertisement - Login to hide

Notes

Basic altitude profile: - Ascent Rate: 2500ft/min - Ascent Speed: 250kts - Cruise Altitude: 35000ft - Cruise Speed: 420kts - Descent Rate: 1500ft/min - Descent Speed: 250kts Options: - Use NATs: yes - Use PACOTS: yes - Use low airways: yes - Use high airways: yes

Route

OMDB ALN OMAL

ID Type Via Altitude Latitude Longitude Leg Dist Tot Dist Heading (true) Name
O OMDB APT - 0 ft / 0 m 25.25491˚ 55.36426˚ - 0 nm - DUBAI INTL
ALN VOR - 0 ft / 0 m 24.25975˚ 55.60636˚ 61 nm 61 nm 167° / 168° AL AIN VOR-DME
O OMAL APT - 0 ft / 0 m 24.26169˚ 55.60913˚ 0 nm 61 nm 52° / 52° AL AIN INTL

Altitude Profile

Advertisement - Login to hide

OMDB

Details ICAO OMDB (DXB)
Name DUBAI INTL
Region United Arab Emirates
Timezone Asia/Dubai (UTC+4.0)
Stats Elevation 62 ft / 19 m (AMSL)
Location 25.254912° 55.364260°
Runways 2
Magnetic Variation 2.047° E

METAR

OMDB 161700Z 06010KT 010V090 CAVOK 22/15 Q1020 RETS WS ALL RWY NOSIG

Decode

TAF

TAF OMDB 161105Z 1612/1718 02012KT 8000 FEW045 PROB30 TEMPO 1612/1620 VRB20G35KT 1500 TSRA BLDU SCT040CB BECMG 1616/1618 09007KT PROB30 TEMPO 1706/1718 VRB20G30KT 3000 SHRA BLDU FEW040TCU BECMG 1710/1712 01010KT

Decode

Departure Runways

ID Width Length Bearing (true) Bearing (mag) Surface Threshold Offset Overrun Length
12L 197 ft / 60 m 13,124 ft / 4,000 m 121.49° 119.44° Asphalt 1,312 ft / 400 m 395 ft / 120 m
12R 151 ft / 46 m 13,139 ft / 4,005 m 121.48° 119.43° Asphalt 394 ft / 120 m 197 ft / 60 m
30L 151 ft / 46 m 13,139 ft / 4,005 m 301.50° 299.45° Asphalt 2,953 ft / 900 m 197 ft / 60 m
30R 197 ft / 60 m 13,124 ft / 4,000 m 301.51° 299.46° Asphalt 0 ft / 0 m 395 ft / 120 m

OMAL

Details ICAO OMAL (AAN)
Name AL AIN INTL
Region United Arab Emirates
Timezone Asia/Dubai (UTC+4.0)
Stats Elevation 869 ft / 265 m (AMSL)
Location 24.261690° 55.609131°
Runways 1
Magnetic Variation 1.845° E

METAR

OMAL 161700Z 35010KT 9999 FEW046 20/14 Q1019 NOSIG RMK LIGHTNING TO N AND SE

Decode

TAF

TAF OMAL 161100Z 1612/1718 15007KT 8000 FEW040 BECMG 1612/1614 08010KT FEW040TCU PROB30 TEMPO 1612/1616 VRB30G40KT 3000 TSRA BLDU FEW040CB BECMG 1618/1620 VRB02KT NSC PROB30 1700/1705 4000 HZ BECMG 1704/1706 17012KT FEW045TCU BECMG 1707/1709 05009KT PROB40 TEMPO 1708/1711 VRB30G40KT 2500 TSRA BLDU SCT050CB

Decode

Destination Runways

ID Width Length Bearing (true) Bearing (mag) Surface Threshold Offset Overrun Length
01 148 ft / 45 m 13,176 ft / 4,016 m 7.40° 5.55° Asphalt 0 ft / 0 m 1,312 ft / 400 m
19 148 ft / 45 m 13,176 ft / 4,016 m 187.40° 185.55° Asphalt 0 ft / 0 m 1,080 ft / 329 m

Popular Alternatives